Time;durP1;ratioP1;P1;durP2;ratioP2;P2;SDS_P1;SDS_P2;PMS_P1;PMS_P2;Temp;Humidity;BMP_temperature;BMP_pressure;BME280_temperature;BME280_humidity;BME280_pressure;Samples;Min_cycle;Max_cycle;Signal;HPM_P1;HPM_P2
2022/05/15 00:00:37;;;;;;;;;8.00;8.00;;;;;20.78;39.06;100948.22;4820804;29;45518;-85
2022/05/15 00:00:38;;;;;;;;;5.67;5.67;;;;;20.78;39.13;100946.44;4835790;29;45456;-84
2022/05/15 00:03:15;;;;;;;;;7.67;7.33;;;;;20.77;39.11;100938.34;4821823;29;46718;-86
2022/05/15 00:05:41;;;;;;;;;10.00;7.33;;;;;20.79;39.25;100952.72;4818933;29;45745;-84
2022/05/15 00:08:09;;;;;;;;;8.00;8.00;;;;;20.71;39.63;100935.78;4816260;29;45481;-84
2022/05/15 00:10:43;;;;;;;;;8.67;8.00;;;;;20.76;39.46;100941.97;4817661;29;47449;-84
2022/05/15 00:13:09;;;;;;;;;9.00;9.00;;;;;20.68;39.65;100931.38;4830816;29;45372;-85
2022/05/15 00:15:35;;;;;;;;;5.33;5.00;;;;;20.71;39.86;100925.88;4816269;29;44971;-85
2022/05/15 00:18:02;;;;;;;;;8.33;8.00;;;;;20.51;39.95;100893.91;4847339;29;45511;-84
2022/05/15 00:20:28;;;;;;;;;10.00;10.00;;;;;20.53;40.24;100899.28;4834861;29;45557;-85
2022/05/15 00:22:54;;;;;;;;;8.00;6.00;;;;;20.61;40.41;100910.81;4834182;29;45591;-85
2022/05/15 00:25:21;;;;;;;;;9.00;7.00;;;;;20.60;41.34;100908.13;4851575;29;45582;-85
2022/05/15 00:27:47;;;;;;;;;8.33;8.33;;;;;20.50;41.43;100899.34;4846308;29;45750;-85
2022/05/15 00:30:15;;;;;;;;;8.67;8.67;;;;;20.53;41.45;100907.38;4850458;29;45689;-85
2022/05/15 00:32:41;;;;;;;;;6.00;6.00;;;;;20.47;41.93;100900.31;4851253;29;45432;-85
2022/05/15 00:35:07;;;;;;;;;5.00;5.00;;;;;20.45;41.56;100895.88;4849391;29;45493;-85
2022/05/15 00:37:33;;;;;;;;;8.00;7.67;;;;;20.35;41.65;100885.28;4852480;29;44810;-85
2022/05/15 00:39:58;;;;;;;;;10.67;8.00;;;;;20.51;41.86;100901.13;4838662;29;48513;-85
2022/05/15 00:42:24;;;;;;;;;5.67;5.67;;;;;20.51;41.61;100904.69;4834738;29;45403;-85
2022/05/15 00:44:50;;;;;;;;;6.67;6.67;;;;;20.47;42.00;100903.00;4880078;29;45655;-85
2022/05/15 00:47:15;;;;;;;;;5.00;5.00;;;;;20.25;41.79;100869.34;4872788;29;45635;-85
2022/05/15 00:49:42;;;;;;;;;5.67;5.67;;;;;20.49;41.51;100903.84;4872486;29;45230;-85
2022/05/15 00:52:12;;;;;;;;;6.00;6.00;;;;;20.53;41.79;100904.69;4872221;29;45416;-85
2022/05/15 00:54:49;;;;;;;;;7.00;7.00;;;;;20.40;42.20;100885.19;4871937;29;45197;-85
2022/05/15 00:57:26;;;;;;;;;6.00;6.00;;;;;20.30;42.24;100867.41;4873770;29;45395;-85
2022/05/15 00:59:58;;;;;;;;;7.67;6.33;;;;;20.40;42.69;100896.00;4875399;29;47186;-85
2022/05/15 01:02:27;;;;;;;;;7.67;7.67;;;;;20.36;42.75;100886.19;4891288;29;45414;-86
2022/05/15 01:04:53;;;;;;;;;8.00;8.00;;;;;20.22;42.85;100874.78;4889870;29;45204;-85
2022/05/15 01:07:19;;;;;;;;;7.00;6.33;;;;;20.07;43.11;100858.03;4873801;29;45257;-84
2022/05/15 01:09:45;;;;;;;;;5.67;5.67;;;;;20.25;43.03;100885.53;4889354;29;46875;-85
2022/05/15 01:12:12;;;;;;;;;8.00;6.33;;;;;20.10;43.09;100868.78;4874088;29;45363;-84
2022/05/15 01:14:44;;;;;;;;;8.67;6.00;;;;;20.07;43.03;100860.72;4890884;29;45966;-85
2022/05/15 01:17:10;;;;;;;;;8.00;8.00;;;;;20.17;43.46;100889.28;4890883;29;45040;-85
2022/05/15 01:19:40;;;;;;;;;7.00;7.00;;;;;20.22;43.41;100882.91;4874327;29;46791;-85
2022/05/15 01:22:08;;;;;;;;;5.00;5.00;;;;;20.19;43.65;100883.88;4891081;29;45631;-85
2022/05/15 01:24:35;;;;;;;;;6.33;6.00;;;;;19.90;43.60;100846.75;4893233;29;45371;-86
2022/05/15 01:27:04;;;;;;;;;7.00;7.00;;;;;20.09;43.37;100877.78;4875886;29;45446;-85
2022/05/15 01:29:35;;;;;;;;;7.00;7.00;;;;;20.09;43.50;100877.78;4892062;29;46908;-85
2022/05/15 01:32:03;;;;;;;;;6.33;5.33;;;;;20.17;43.63;100886.59;4875752;29;44780;-84
2022/05/15 01:34:28;;;;;;;;;8.33;6.33;;;;;20.10;44.01;100879.56;4890797;29;45576;-85
2022/05/15 01:36:54;;;;;;;;;7.33;7.00;;;;;20.09;43.68;100875.09;4876403;29;45428;-84
2022/05/15 01:39:20;;;;;;;;;7.00;7.00;;;;;19.95;43.67;100850.22;4894431;29;45499;-85
2022/05/15 01:41:45;;;;;;;;;6.33;6.33;;;;;20.06;43.77;100871.59;4893198;29;45529;-85
2022/05/15 01:44:11;;;;;;;;;5.00;5.00;;;;;20.04;43.71;100877.03;4873456;29;45532;-84
2022/05/15 01:46:37;;;;;;;;;4.33;4.33;;;;;20.06;43.42;100871.59;4878626;29;45539;-85
2022/05/15 01:49:06;;;;;;;;;7.00;6.00;;;;;20.08;43.91;100873.31;4877254;29;46970;-85
2022/05/15 01:51:33;;;;;;;;;7.33;6.00;;;;;20.06;43.64;100869.78;4877140;29;45825;-85
2022/05/15 01:54:01;;;;;;;;;6.67;6.67;;;;;20.06;43.80;100867.06;4876752;29;45521;-85
2022/05/15 01:56:28;;;;;;;;;6.00;6.00;;;;;20.04;43.80;100862.66;4877921;29;45447;-85
2022/05/15 01:58:54;;;;;;;;;9.33;6.00;;;;;20.03;43.87;100861.72;4875496;29;48144;-85
2022/05/15 02:01:19;;;;;;;;;8.00;7.00;;;;;19.90;44.02;100834.13;4872188;29;45820;-85
2022/05/15 02:03:48;;;;;;;;;7.67;6.00;;;;;19.96;44.05;100838.53;4873464;29;45369;-84
2022/05/15 02:06:14;;;;;;;;;8.00;6.00;;;;;20.00;44.01;100837.53;4875137;29;45485;-84
2022/05/15 02:08:39;;;;;;;;;8.00;6.00;;;;;20.01;43.94;100843.81;4873291;29;45712;-85
2022/05/15 02:11:06;;;;;;;;;6.00;6.00;;;;;20.01;43.87;100833.88;4874224;29;45448;-85
2022/05/15 02:13:31;;;;;;;;;5.33;5.33;;;;;19.98;44.40;100825.88;4871836;29;44803;-85
2022/05/15 02:15:58;;;;;;;;;6.67;6.67;;;;;19.96;44.73;100825.03;4876379;29;45843;-84
2022/05/15 02:18:24;;;;;;;;;6.00;4.67;;;;;19.94;44.51;100819.66;4875325;29;47077;-84
2022/05/15 02:24:12;;;;;;;;;7.67;7.00;;;;;19.85;44.37;100791.97;4876060;29;45770;-85
2022/05/15 02:26:37;;;;;;;;;7.00;7.00;;;;;19.93;44.53;100806.19;4877236;29;45515;-84
2022/05/15 02:29:04;;;;;;;;;7.00;6.33;;;;;19.86;44.21;100799.16;4859872;29;47049;-85
2022/05/15 02:31:29;;;;;;;;;4.00;4.00;;;;;19.94;44.23;100813.38;4872424;29;45211;-84
2022/05/15 02:34:51;;;;;;;;;7.33;5.00;;;;;20.07;44.03;100827.47;4872477;29;44758;-85
2022/05/15 02:37:17;;;;;;;;;6.33;6.00;;;;;20.00;44.27;100824.03;4872608;29;45520;-85
2022/05/15 02:39:42;;;;;;;;;6.00;6.00;;;;;20.03;44.32;100823.06;4874827;29;47127;-84
2022/05/15 02:42:09;;;;;;;;;7.33;6.00;;;;;20.06;44.19;100834.69;4874048;29;45606;-84
2022/05/15 02:44:34;;;;;;;;;8.00;6.00;;;;;20.09;44.44;100834.59;4872983;29;45753;-85
2022/05/15 02:47:00;;;;;;;;;8.00;8.00;;;;;20.04;44.25;100823.03;4873109;29;45377;-84
2022/05/15 02:52:09;;;;;;;;;6.33;6.33;;;;;20.04;44.38;100833.81;4874605;29;45790;-85
2022/05/15 02:54:36;;;;;;;;;7.00;5.33;;;;;20.12;44.31;100839.94;4873790;29;44744;-85
2022/05/15 02:57:04;;;;;;;;;8.00;8.00;;;;;20.04;44.32;100831.13;4873914;29;45435;-85
2022/05/15 02:59:30;;;;;;;;;12.67;9.00;;;;;20.04;44.48;100835.66;4888320;29;47154;-85
2022/05/15 03:01:56;;;;;;;;;7.00;7.00;;;;;20.00;44.28;100834.81;4873369;29;45468;-85
2022/05/15 03:04:21;;;;;;;;;8.67;8.67;;;;;19.99;44.63;100833.91;4872519;29;45973;-85
2022/05/15 03:06:53;;;;;;;;;11.00;11.00;;;;;19.93;44.52;100830.47;4871661;29;45534;-85
2022/05/15 03:09:20;;;;;;;;;10.00;9.00;;;;;19.96;44.81;100828.59;4870863;29;45486;-85
2022/05/15 03:11:52;;;;;;;;;7.67;7.67;;;;;19.96;44.88;100823.19;4871701;29;45434;-85
2022/05/15 03:14:18;;;;;;;;;12.00;11.00;;;;;19.91;44.68;100818.81;4855298;29;45429;-85
2022/05/15 03:16:44;;;;;;;;;8.67;8.67;;;;;19.86;44.92;100801.88;4869837;29;45437;-84
2022/05/15 03:19:09;;;;;;;;;12.00;10.33;;;;;19.86;45.01;100810.84;4886941;29;47469;-84
2022/05/15 03:21:35;;;;;;;;;9.00;9.00;;;;;19.74;44.89;100806.63;4870660;29;45851;-85
2022/05/15 03:24:10;;;;;;;;;10.33;10.33;;;;;19.76;45.54;100807.47;4867808;29;45957;-85
2022/05/15 03:26:47;;;;;;;;;8.67;8.67;;;;;19.70;45.78;100798.59;4869636;29;45458;-85
2022/05/15 03:29:15;;;;;;;;;7.00;7.00;;;;;19.66;46.05;100808.56;4869446;29;48424;-85
2022/05/15 03:31:41;;;;;;;;;9.67;8.00;;;;;19.42;46.42;100768.66;4885508;29;45405;-84
2022/05/15 03:34:09;;;;;;;;;6.33;6.33;;;;;19.49;46.81;100783.75;4887049;29;45436;-85
2022/05/15 03:36:37;;;;;;;;;9.67;8.00;;;;;19.26;46.87;100771.66;4871786;29;45488;-85
2022/05/15 03:39:04;;;;;;;;;9.00;9.00;;;;;19.35;47.02;100798.44;4884341;29;46895;-85
2022/05/15 03:41:30;;;;;;;;;10.00;10.00;;;;;19.27;47.02;100789.63;4868790;29;45353;-85
2022/05/15 03:43:56;;;;;;;;;10.67;9.00;;;;;19.14;47.24;100782.72;4874384;29;45440;-84
2022/05/15 03:46:21;;;;;;;;;9.00;8.00;;;;;19.14;47.17;100772.81;4889562;29;45412;-85
2022/05/15 03:48:46;;;;;;;;;9.00;9.00;;;;;19.16;47.41;100780.88;4888338;29;45202;-84
2022/05/15 03:51:13;;;;;;;;;8.00;8.00;;;;;19.15;47.80;100796.16;4890493;29;45671;-85
2022/05/15 03:53:38;;;;;;;;;7.00;7.00;;;;;19.09;47.67;100784.63;4891810;29;45590;-85
2022/05/15 03:56:04;;;;;;;;;6.33;6.33;;;;;19.08;47.29;100780.16;4891652;29;45264;-85
2022/05/15 03:58:33;;;;;;;;;7.00;7.00;;;;;19.11;47.94;100782.78;4874411;29;47534;-85
2022/05/15 04:00:59;;;;;;;;;8.00;7.00;;;;;19.03;48.54;100779.34;4890549;29;45385;-85
2022/05/15 04:03:25;;;;;;;;;8.67;8.67;;;;;18.88;48.07;100773.34;4891487;29;45452;-85
2022/05/15 04:05:50;;;;;;;;;8.00;8.00;;;;;18.96;47.88;100787.53;4890268;29;45486;-85
2022/05/15 04:08:16;;;;;;;;;8.00;7.00;;;;;18.94;47.88;100786.69;4889246;29;46830;-85
2022/05/15 04:10:41;;;;;;;;;8.33;8.33;;;;;18.93;47.95;100795.72;4888405;29;45481;-85
2022/05/15 04:13:07;;;;;;;;;7.00;7.00;;;;;18.92;48.00;100788.53;4888409;29;45363;-85
2022/05/15 04:15:33;;;;;;;;;10.00;10.00;;;;;18.95;47.99;100803.78;4887234;29;45464;-85
2022/05/15 04:17:58;;;;;;;;;8.33;8.00;;;;;18.82;47.82;100780.66;4888106;29;47045;-85
2022/05/15 04:20:28;;;;;;;;;11.00;8.00;;;;;18.91;48.08;100786.75;4888848;29;45523;-85
2022/05/15 04:22:54;;;;;;;;;10.67;8.33;;;;;18.93;48.17;100798.41;4889326;29;45424;-84
2022/05/15 04:26:12;;;;;;;;;8.33;7.67;;;;;19.01;47.67;100790.16;4890406;29;44815;-85
2022/05/15 04:28:37;;;;;;;;;7.67;7.67;;;;;18.93;47.87;100790.31;4889237;29;47341;-85
2022/05/15 04:31:04;;;;;;;;;6.67;6.00;;;;;18.92;47.66;100766.97;4873177;29;46012;-84
2022/05/15 04:33:29;;;;;;;;;9.00;7.67;;;;;18.97;48.08;100773.16;4877548;29;45531;-84
2022/05/15 04:35:55;;;;;;;;;6.00;6.00;;;;;18.98;47.94;100771.34;4876837;29;45339;-85
2022/05/15 04:39:10;;;;;;;;;8.67;7.67;;;;;18.99;47.83;100762.38;4894679;29;45431;-85
2022/05/15 04:41:36;;;;;;;;;7.00;5.67;;;;;18.99;47.67;100775.84;4878550;29;45431;-85
2022/05/15 04:44:01;;;;;;;;;8.00;6.33;;;;;19.00;47.78;100780.28;4892736;29;45546;-85
2022/05/15 04:46:29;;;;;;;;;10.00;8.00;;;;;19.02;47.82;100794.63;4895641;29;45599;-85
2022/05/15 04:48:54;;;;;;;;;8.00;8.00;;;;;19.07;47.58;100778.38;4895022;29;45375;-85
2022/05/15 04:51:19;;;;;;;;;7.67;7.00;;;;;19.17;47.39;100788.06;4894232;29;45070;-85
2022/05/15 04:53:45;;;;;;;;;10.33;9.33;;;;;19.20;48.00;100787.97;4892923;29;45380;-85
2022/05/15 04:56:10;;;;;;;;;10.33;9.67;;;;;19.25;48.22;100787.88;4892806;29;45792;-85
2022/05/15 04:58:36;;;;;;;;;11.67;11.67;;;;;19.19;48.58;100781.69;4891059;29;46901;-86
2022/05/15 05:01:01;;;;;;;;;14.33;12.67;;;;;19.26;48.97;100790.53;4891396;29;44779;-86
2022/05/15 05:03:27;;;;;;;;;11.33;11.33;;;;;19.28;49.07;100796.78;4892363;29;44986;-86
2022/05/15 05:05:52;;;;;;;;;13.00;13.00;;;;;19.31;49.61;100793.13;4894760;29;45625;-85
2022/05/15 05:08:18;;;;;;;;;11.00;11.00;;;;;19.35;49.49;100797.53;4894365;29;44995;-86
2022/05/15 05:10:43;;;;;;;;;16.33;14.00;;;;;19.43;49.57;100789.28;4879089;29;45718;-85
2022/05/15 05:13:09;;;;;;;;;12.33;11.33;;;;;19.48;49.00;100795.50;4878042;29;45566;-85
2022/05/15 05:15:35;;;;;;;;;12.00;11.00;;;;;19.54;49.26;100789.97;4893505;29;45415;-84
2022/05/15 05:18:01;;;;;;;;;10.67;10.67;;;;;19.62;49.13;100787.97;4876500;29;47130;-85
2022/05/15 05:20:26;;;;;;;;;13.33;12.00;;;;;19.73;48.82;100788.66;4891835;29;45426;-85
2022/05/15 05:22:53;;;;;;;;;12.00;10.67;;;;;19.88;48.85;100789.22;4894436;29;45730;-85
2022/05/15 05:25:19;;;;;;;;;16.67;15.00;;;;;19.94;48.90;100797.19;4878463;29;45409;-85
2022/05/15 05:27:45;;;;;;;;;14.00;13.00;;;;;19.65;48.56;100751.94;4894366;29;47729;-85
2022/05/15 05:30:16;;;;;;;;;13.33;13.33;;;;;19.70;48.65;100750.91;4895900;29;45367;-85
2022/05/15 05:32:42;;;;;;;;;12.67;12.67;;;;;19.95;48.54;100798.94;4877600;29;45400;-85
2022/05/15 05:35:10;;;;;;;;;12.33;12.33;;;;;19.95;48.59;100788.13;4892993;29;44983;-86
2022/05/15 05:37:36;;;;;;;;;10.00;10.00;;;;;19.97;48.39;100802.47;4876491;29;47018;-85
2022/05/15 05:40:03;;;;;;;;;8.67;8.67;;;;;19.84;48.53;100790.22;4892489;29;44772;-85
2022/05/15 05:42:28;;;;;;;;;12.33;10.33;;;;;19.75;48.24;100792.22;4892456;29;45322;-84
2022/05/15 05:44:54;;;;;;;;;9.00;9.00;;;;;19.72;48.57;100792.25;4894295;29;45402;-84
2022/05/15 05:47:25;;;;;;;;;8.00;8.00;;;;;19.68;48.42;100758.16;4895202;29;47263;-85
2022/05/15 05:49:51;;;;;;;;;10.67;8.67;;;;;19.73;47.86;100768.88;4878360;29;44848;-85
2022/05/15 05:52:17;;;;;;;;;9.67;9.67;;;;;19.84;47.85;100774.03;4893534;29;45427;-85
2022/05/15 05:54:42;;;;;;;;;5.33;5.33;;;;;20.01;47.52;100787.09;4895627;29;44825;-86
2022/05/15 05:57:08;;;;;;;;;8.33;7.00;;;;;20.21;46.67;100792.03;4878537;29;47048;-85
2022/05/15 05:59:33;;;;;;;;;8.00;7.67;;;;;20.40;46.32;100787.94;4895242;29;46046;-86
2022/05/15 06:01:59;;;;;;;;;8.00;8.00;;;;;20.58;45.72;100800.06;4894787;29;45445;-86
2022/05/15 06:04:40;;;;;;;;;7.33;7.33;;;;;20.72;45.46;100792.53;4895416;29;45625;-86
2022/05/15 06:07:06;;;;;;;;;9.00;9.00;;;;;20.92;44.80;100799.19;4893117;29;47173;-86
2022/05/15 06:09:32;;;;;;;;;6.00;5.00;;;;;20.89;44.33;100769.53;4893585;29;45415;-86
2022/05/15 06:11:57;;;;;;;;;8.00;8.00;;;;;21.21;44.16;100794.75;4893719;29;45664;-86
2022/05/15 06:14:23;;;;;;;;;6.67;5.33;;;;;21.34;43.75;100783.53;4876854;29;44905;-86
2022/05/15 06:16:49;;;;;;;;;7.67;6.67;;;;;21.44;43.42;100764.34;4892748;29;46943;-86
2022/05/15 06:19:15;;;;;;;;;8.67;7.00;;;;;21.66;43.31;100786.22;4895035;29;45425;-85
2022/05/15 06:21:40;;;;;;;;;8.00;8.00;;;;;21.74;43.37;100768.81;4877741;29;45759;-85
2022/05/15 06:24:06;;;;;;;;;7.67;7.00;;;;;21.89;42.73;100762.00;4879707;29;44905;-84
2022/05/15 06:26:32;;;;;;;;;6.67;6.33;;;;;21.91;41.96;100775.50;4895708;29;45487;-84
2022/05/15 06:28:57;;;;;;;;;8.67;8.67;;;;;21.97;41.95;100769.88;4895175;29;45269;-85
2022/05/15 06:31:23;;;;;;;;;8.67;7.33;;;;;22.07;42.38;100782.19;4897787;29;45524;-85
2022/05/15 06:33:48;;;;;;;;;5.33;5.33;;;;;22.07;42.48;100770.47;4866060;29;45472;-85
2022/05/15 06:37:10;;;;;;;;;9.67;9.67;;;;;22.30;41.15;100780.56;4897042;29;45342;-85
2022/05/15 06:39:35;;;;;;;;;6.67;6.67;;;;;22.27;41.68;100783.38;4896593;29;45438;-84
2022/05/15 06:42:01;;;;;;;;;10.00;8.00;;;;;22.33;40.66;100777.75;4880102;29;45400;-85
2022/05/15 06:44:27;;;;;;;;;7.67;7.00;;;;;22.33;40.92;100781.34;4876384;29;45423;-84
2022/05/15 06:46:53;;;;;;;;;6.67;6.67;;;;;22.26;41.28;100779.78;4871230;29;47426;-85
2022/05/15 06:49:19;;;;;;;;;8.00;8.00;;;;;22.42;41.11;100788.28;4872625;29;45420;-86
2022/05/15 06:51:45;;;;;;;;;9.33;8.00;;;;;22.41;40.96;100794.63;4872298;29;45523;-85
2022/05/15 06:54:10;;;;;;;;;7.00;7.00;;;;;22.46;40.88;100778.22;4872585;29;45482;-85
2022/05/15 06:59:20;;;;;;;;;9.33;7.00;;;;;22.51;40.59;100771.69;4872722;29;45475;-85
2022/05/15 07:01:46;;;;;;;;;7.67;6.67;;;;;22.43;40.10;100762.94;4872007;29;44836;-85
2022/05/15 07:04:12;;;;;;;;;9.00;7.67;;;;;22.36;40.53;100761.41;4871720;29;45361;-85
2022/05/15 07:06:37;;;;;;;;;7.33;7.00;;;;;22.39;40.56;100752.28;4871755;29;45464;-86
2022/05/15 07:09:02;;;;;;;;;8.00;7.00;;;;;22.49;39.55;100761.84;4871042;29;45409;-85
2022/05/15 07:11:28;;;;;;;;;5.67;5.67;;;;;22.49;39.06;100754.59;4885353;29;45392;-84
2022/05/15 07:13:54;;;;;;;;;4.67;4.67;;;;;22.57;39.51;100748.91;4870129;29;45513;-87
2022/05/15 07:16:20;;;;;;;;;6.00;6.00;;;;;22.73;38.70;100749.25;4872198;29;45486;-84
2022/05/15 07:18:46;;;;;;;;;4.00;4.00;;;;;22.87;38.46;100749.63;4871021;29;45450;-84
2022/05/15 07:21:12;;;;;;;;;5.00;5.00;;;;;22.81;37.75;100739.00;4886422;29;45535;-84
2022/05/15 07:23:37;;;;;;;;;5.33;5.33;;;;;22.77;38.00;100748.19;4872821;29;45514;-84
2022/05/15 07:26:03;;;;;;;;;4.00;4.00;;;;;22.65;37.46;100746.81;4871117;29;46641;-85
2022/05/15 07:28:29;;;;;;;;;5.67;5.67;;;;;22.48;37.69;100736.59;4872669;29;45925;-85
2022/05/15 07:30:54;;;;;;;;;3.00;3.00;;;;;22.41;37.75;100732.31;4872153;29;44797;-85
2022/05/15 07:33:27;;;;;;;;;4.00;3.33;;;;;22.34;38.62;100726.22;4888470;29;45306;-84
2022/05/15 07:42:57;;;;;;;;;4.33;4.33;;;;;22.82;37.98;100738.06;4874956;29;45397;-85
2022/05/15 07:45:22;;;;;;;;;4.33;4.33;;;;;22.86;37.47;100737.00;4869629;29;45536;-85
2022/05/15 07:47:47;;;;;;;;;5.00;3.67;;;;;23.03;37.94;100735.53;4874667;29;47045;-85
2022/05/15 07:50:13;;;;;;;;;5.67;5.67;;;;;23.16;37.92;100726.84;4872913;29;45397;-85
2022/05/15 07:52:39;;;;;;;;;6.00;4.00;;;;;23.32;37.49;100715.41;4870234;29;45950;-85
2022/05/15 07:55:06;;;;;;;;;4.33;4.33;;;;;23.54;37.10;100712.72;4869633;29;45456;-85
2022/05/15 07:57:34;;;;;;;;;4.67;4.67;;;;;23.70;36.94;100716.59;4884615;29;47286;-85
2022/05/15 08:00:05;;;;;;;;;4.67;4.67;;;;;23.85;37.36;100712.38;4869929;29;45406;-85
2022/05/15 08:02:31;;;;;;;;;4.67;4.00;;;;;23.98;36.51;100720.03;4883733;29;45466;-85
2022/05/15 08:10:26;;;;;;;;;5.67;5.00;;;;;24.35;35.80;100678.56;4871232;29;45196;-85
2022/05/15 08:12:51;;;;;;;;;5.33;4.33;;;;;24.45;35.09;100679.91;4873037;29;45227;-85
2022/05/15 08:15:17;;;;;;;;;5.33;4.67;;;;;24.48;34.76;100671.63;4870099;29;45479;-85
2022/05/15 08:17:42;;;;;;;;;4.67;4.67;;;;;24.55;34.25;100684.03;4870407;29;46899;-85
2022/05/15 08:23:33;;;;;;;;;4.33;4.33;;;;;24.70;35.17;100660.72;4870866;29;45442;-85
2022/05/15 08:25:46;;;;;;;;;5.67;5.67;;;;;24.85;34.59;100669.97;4870503;29;45470;-85
2022/05/15 08:28:12;;;;;;;;;3.00;3.00;;;;;24.86;34.22;100641.81;4868414;29;47594;-85
2022/05/15 08:30:38;;;;;;;;;7.00;5.00;;;;;25.05;34.64;100657.28;4869468;29;45495;-84
2022/05/15 08:33:05;;;;;;;;;5.00;5.00;;;;;24.88;34.10;100642.63;4868360;29;45441;-84
2022/05/15 08:35:31;;;;;;;;;4.33;3.33;;;;;24.93;34.51;100661.47;4869973;29;45375;-84
2022/05/15 08:37:57;;;;;;;;;4.00;4.00;;;;;24.76;33.78;100664.94;4870358;29;46850;-84
2022/05/15 08:40:32;;;;;;;;;3.67;3.67;;;;;24.75;33.78;100663.22;4868329;29;45362;-85
2022/05/15 08:42:59;;;;;;;;;5.33;5.33;;;;;24.75;34.54;100655.91;4871290;29;45359;-85
2022/05/15 08:45:32;;;;;;;;;3.00;3.00;;;;;24.97;33.98;100651.34;4870580;29;45587;-85
2022/05/15 08:48:12;;;;;;;;;3.67;3.67;;;;;25.08;34.31;100651.69;4871918;29;47195;-85
2022/05/15 08:50:51;;;;;;;;;3.33;3.33;;;;;25.24;33.40;100646.44;4872497;29;45748;-86
2022/05/15 08:53:28;;;;;;;;;4.00;3.33;;;;;25.40;33.04;100650.16;4871595;29;45091;-86
2022/05/15 08:55:59;;;;;;;;;4.00;4.00;;;;;25.57;33.15;100652.03;4885542;29;45418;-85
2022/05/15 08:58:45;;;;;;;;;3.00;2.67;;;;;25.69;31.68;100645.09;4871226;29;45899;-85
2022/05/15 09:01:14;;;;;;;;;3.33;3.33;;;;;25.69;32.51;100634.19;4885922;29;45341;-85
2022/05/15 09:03:42;;;;;;;;;5.00;3.33;;;;;25.73;32.10;100634.00;4869775;29;45409;-86
2022/05/15 09:06:19;;;;;;;;;3.33;3.33;;;;;25.88;31.86;100639.63;4855772;29;45514;-85
2022/05/15 09:09:16;;;;;;;;;3.67;3.67;;;;;25.74;31.19;100640.31;4870938;29;47018;-85
2022/05/15 09:11:57;;;;;;;;;4.33;3.33;;;;;25.70;31.76;100635.97;4871052;29;45643;-86
2022/05/15 09:14:47;;;;;;;;;3.00;3.00;;;;;25.80;31.30;100631.81;4871128;29;45417;-85
2022/05/15 09:17:42;;;;;;;;;3.00;3.00;;;;;25.79;30.41;100634.63;4870101;29;45468;-85
2022/05/15 09:20:47;;;;;;;;;3.00;2.33;;;;;25.93;31.10;100632.09;4875022;29;45652;-86
2022/05/15 09:23:43;;;;;;;;;3.00;3.00;;;;;26.09;30.17;100630.34;4782911;29;45428;-85
2022/05/15 09:26:20;;;;;;;;;2.67;2.00;;;;;26.09;30.50;100624.00;4782461;29;45634;-85
2022/05/15 09:28:51;;;;;;;;;5.00;4.00;;;;;26.04;30.16;100618.81;4782109;29;45504;-85
2022/05/15 09:31:35;;;;;;;;;5.00;2.67;;;;;26.10;30.16;100617.63;4781896;29;46896;-85
2022/05/15 09:34:11;;;;;;;;;3.00;3.00;;;;;26.09;31.03;100616.69;4782504;29;45452;-85
2022/05/15 09:36:36;;;;;;;;;1.67;1.67;;;;;26.06;30.38;100622.34;4798106;29;45521;-85
2022/05/15 09:39:24;;;;;;;;;5.00;3.00;;;;;26.13;31.11;100612.84;4782833;29;45385;-85
2022/05/15 09:45:07;;;;;;;;;2.00;2.00;;;;;26.27;30.26;100603.94;4797141;29;44859;-85
2022/05/15 09:47:38;;;;;;;;;5.00;5.00;;;;;26.27;30.70;100609.41;4782588;29;45567;-84
2022/05/15 09:50:08;;;;;;;;;3.67;3.67;;;;;26.33;30.87;100609.06;4782076;29;45734;-85
2022/05/15 09:52:42;;;;;;;;;4.33;3.00;;;;;26.36;30.46;100608.03;4782319;29;47126;-85
2022/05/15 09:55:23;;;;;;;;;2.00;2.00;;;;;26.37;30.28;100585.25;4784376;29;45429;-84
2022/05/15 09:57:58;;;;;;;;;1.67;0.67;;;;;26.48;30.39;100591.00;4800689;29;45488;-85
2022/05/15 10:00:27;;;;;;;;;3.00;3.00;;;;;26.43;30.53;100581.31;4842526;29;45483;-85
2022/05/15 10:02:54;;;;;;;;;2.00;2.00;;;;;26.38;29.97;100578.84;4874238;29;47453;-85
2022/05/15 10:05:30;;;;;;;;;5.33;4.33;;;;;26.38;28.85;100578.84;4876122;29;45420;-85
2022/05/15 10:08:24;;;;;;;;;3.00;3.00;;;;;26.45;29.45;100582.97;4875134;29;45385;-85
2022/05/15 10:11:02;;;;;;;;;1.33;1.33;;;;;26.52;29.13;100559.88;4873282;29;45429;-85
2022/05/15 10:13:35;;;;;;;;;3.00;3.00;;;;;26.74;28.47;100580.53;4873135;29;47006;-85
2022/05/15 10:19:26;;;;;;;;;2.00;2.00;;;;;26.91;28.72;100564.09;4874728;29;45174;-85
2022/05/15 10:22:03;;;;;;;;;4.00;4.00;;;;;27.00;28.13;100567.25;4871971;29;45546;-85
2022/05/15 10:24:35;;;;;;;;;3.00;3.00;;;;;27.09;28.79;100559.44;4889651;28;47195;-85
2022/05/15 10:27:10;;;;;;;;;2.33;2.33;;;;;27.09;28.13;100553.09;4873931;29;45508;-84
2022/05/15 10:29:42;;;;;;;;;4.00;4.00;;;;;27.12;29.08;100550.16;4876403;29;45320;-85
2022/05/15 10:32:16;;;;;;;;;3.00;3.00;;;;;27.18;28.49;100552.53;4875443;29;45550;-85
2022/05/15 10:34:42;;;;;;;;;2.67;2.67;;;;;27.14;27.75;100549.09;4873490;29;47513;-86
2022/05/15 10:37:26;;;;;;;;;2.00;2.00;;;;;27.22;28.00;100547.78;4872722;29;45444;-85
2022/05/15 10:40:16;;;;;;;;;4.00;2.00;;;;;27.27;28.81;100543.84;4872523;29;45510;-85
2022/05/15 10:43:29;;;;;;;;;2.67;2.00;;;;;27.22;27.71;100515.91;4870420;29;45411;-85
2022/05/15 10:46:03;;;;;;;;;2.33;2.33;;;;;27.44;27.32;100541.97;4865349;29;46820;-85
2022/05/15 10:48:53;;;;;;;;;4.67;3.00;;;;;27.48;27.28;100543.53;4884668;29;45848;-86
2022/05/15 10:51:23;;;;;;;;;5.67;5.67;;;;;27.46;27.99;100537.31;4885115;29;45355;-85
2022/05/15 10:57:29;;;;;;;;;1.33;1.33;;;;;27.64;28.12;100535.31;4874428;29;45062;-85
2022/05/15 11:00:00;;;;;;;;;3.00;1.67;;;;;27.61;28.33;100528.19;4888110;29;45505;-84
2022/05/15 11:02:57;;;;;;;;;4.67;3.67;;;;;27.71;28.73;100539.41;4888513;29;45475;-85
2022/05/15 11:05:28;;;;;;;;;2.00;2.00;;;;;27.74;28.74;100529.19;4889204;29;44860;-86
2022/05/15 11:08:19;;;;;;;;;2.00;2.00;;;;;27.76;28.53;100526.38;4886951;29;46151;-85
2022/05/15 11:11:10;;;;;;;;;3.33;3.33;;;;;27.73;28.39;100516.50;4886843;29;44887;-85
2022/05/15 11:13:45;;;;;;;;;3.67;1.67;;;;;27.90;28.97;100520.97;4885889;29;45371;-85
2022/05/15 11:16:22;;;;;;;;;3.67;3.67;;;;;27.87;28.38;100517.53;4871955;29;45422;-85
2022/05/15 11:18:47;;;;;;;;;4.67;3.67;;;;;27.82;28.04;100516.91;4872986;29;47045;-85
2022/05/15 11:21:47;;;;;;;;;3.67;3.67;;;;;27.85;27.79;100514.84;4876795;29;45357;-85
2022/05/15 11:24:18;;;;;;;;;2.33;2.33;;;;;27.90;28.22;100514.63;4878364;29;45442;-85
2022/05/15 11:26:55;;;;;;;;;3.00;3.00;;;;;27.93;27.48;100506.22;4886751;29;44904;-85
2022/05/15 11:29:22;;;;;;;;;4.33;3.67;;;;;27.85;27.80;100498.47;4871620;29;47600;-85
2022/05/15 11:31:53;;;;;;;;;2.67;2.67;;;;;27.90;27.77;100495.50;4887854;29;45542;-85
2022/05/15 11:34:19;;;;;;;;;4.67;4.67;;;;;27.97;28.17;100512.38;4887152;29;45505;-85
2022/05/15 11:36:49;;;;;;;;;2.33;2.33;;;;;27.93;27.56;100501.66;4887133;29;45688;-85
2022/05/15 11:39:17;;;;;;;;;6.33;3.67;;;;;28.06;27.72;100501.75;4871969;29;46939;-85
2022/05/15 11:41:43;;;;;;;;;14.33;12.00;;;;;28.03;27.39;100501.06;4888482;29;45416;-85
2022/05/15 11:44:14;;;;;;;;;7.33;6.33;;;;;28.09;27.83;100490.59;4889335;29;45451;-85
2022/05/15 11:46:46;;;;;;;;;6.00;6.00;;;;;28.15;27.41;100489.34;4888905;29;45434;-85
2022/05/15 11:49:32;;;;;;;;;4.33;4.33;;;;;28.21;27.46;100504.50;4889249;29;48124;-85
2022/05/15 11:52:03;;;;;;;;;2.67;2.67;;;;;28.23;27.84;100499.81;4873351;29;45463;-85
2022/05/15 11:54:33;;;;;;;;;12.00;12.00;;;;;28.28;27.94;100490.34;4886152;29;44834;-85
2022/05/15 11:57:01;;;;;;;;;6.00;6.00;;;;;28.36;26.82;100481.66;4886234;29;45443;-85
2022/05/15 11:59:32;;;;;;;;;3.00;3.00;;;;;28.41;27.36;100479.47;4886610;29;47216;-85
2022/05/15 12:02:20;;;;;;;;;4.33;4.33;;;;;28.48;27.56;100491.78;4890937;29;45548;-85
2022/05/15 12:04:46;;;;;;;;;3.33;3.33;;;;;28.52;26.62;100485.19;4874960;29;45426;-85
2022/05/15 12:07:14;;;;;;;;;5.67;4.00;;;;;28.60;26.78;100478.31;4876104;29;45164;-84
2022/05/15 12:09:39;;;;;;;;;1.67;1.67;;;;;28.58;25.87;100483.91;4887379;29;47374;-85